createdAt,value
2023-05-02T00:01:32.479Z,12.00
2023-05-02T00:04:00.664Z,11.57
2023-05-02T00:06:28.928Z,8.77
2023-05-02T00:08:57.137Z,7.50
2023-05-02T00:11:26.623Z,6.70
2023-05-02T00:13:54.775Z,6.20
2023-05-02T00:16:22.964Z,5.60
2023-05-02T00:18:51.135Z,5.70
2023-05-02T00:21:19.369Z,5.03
2023-05-02T00:23:47.537Z,5.07
2023-05-02T00:26:15.714Z,5.50
2023-05-02T00:28:45.256Z,4.90
2023-05-02T00:31:13.468Z,5.00
2023-05-02T00:33:41.617Z,4.90
2023-05-02T00:36:14.917Z,5.50
2023-05-02T00:38:43.010Z,5.40
2023-05-02T00:41:11.154Z,4.70
2023-05-02T00:43:40.950Z,4.47
2023-05-02T00:46:12.186Z,3.70
2023-05-02T00:48:40.705Z,3.00
2023-05-02T00:51:12.093Z,3.13
2023-05-02T00:53:40.611Z,2.77
2023-05-02T00:56:09.490Z,3.20
2023-05-02T00:58:38.063Z,3.17
2023-05-02T01:01:13.348Z,3.27
2023-05-02T01:03:46.867Z,4.10
2023-05-02T01:06:24.512Z,3.80
2023-05-02T01:08:55.951Z,4.33
2023-05-02T01:11:30.093Z,4.40
2023-05-02T01:13:59.562Z,3.53
2023-05-02T01:16:28.085Z,3.23
2023-05-02T01:18:57.928Z,3.20
2023-05-02T01:21:26.677Z,3.17
2023-05-02T01:23:59.017Z,3.33
2023-05-02T01:26:31.783Z,2.50
2023-05-02T01:29:02.289Z,2.47
2023-05-02T01:31:32.476Z,2.70
2023-05-02T01:34:01.957Z,2.60
2023-05-02T01:36:32.484Z,2.80
2023-05-02T01:39:02.051Z,2.83
2023-05-02T01:41:31.842Z,2.40
2023-05-02T01:44:00.817Z,3.13
2023-05-02T01:46:33.223Z,2.73
2023-05-02T01:49:03.688Z,3.00
2023-05-02T01:51:34.738Z,3.30
2023-05-02T01:54:04.160Z,3.07
2023-05-02T01:56:33.372Z,3.00
2023-05-02T01:59:02.461Z,2.67
2023-05-02T02:01:32.279Z,2.87
2023-05-02T02:04:01.452Z,2.70
2023-05-02T02:06:29.849Z,2.90
2023-05-02T02:08:58.056Z,2.40
2023-05-02T02:11:28.459Z,2.60
2023-05-02T02:13:59.132Z,3.00
2023-05-02T02:16:30.667Z,3.00
2023-05-02T02:19:01.023Z,3.07
2023-05-02T02:21:29.596Z,2.80
2023-05-02T02:23:59.154Z,3.80
2023-05-02T02:26:27.295Z,2.37
2023-05-02T02:28:55.637Z,3.03
2023-05-02T02:31:25.638Z,2.07
2023-05-02T02:33:54.277Z,2.07
2023-05-02T02:36:31.299Z,2.00
2023-05-02T02:39:04.824Z,2.10
2023-05-02T02:41:34.852Z,2.33
2023-05-02T02:44:07.864Z,2.27
2023-05-02T02:46:39.972Z,2.20
2023-05-02T02:49:14.930Z,1.90
2023-05-02T02:51:47.024Z,1.80
2023-05-02T02:54:25.743Z,1.87
2023-05-02T02:57:00.265Z,1.80
2023-05-02T02:59:30.520Z,2.73
2023-05-02T03:02:02.668Z,1.60
2023-05-02T03:04:32.440Z,1.83
2023-05-02T03:07:02.259Z,1.70
2023-05-02T03:09:33.617Z,1.40
2023-05-02T03:12:01.826Z,1.40
2023-05-02T03:14:30.250Z,1.93
2023-05-02T03:16:58.479Z,1.77
2023-05-02T03:19:27.269Z,1.73
2023-05-02T03:21:55.530Z,1.30
2023-05-02T03:24:25.055Z,1.50
2023-05-02T03:26:56.042Z,1.63
2023-05-02T03:29:24.483Z,2.00
2023-05-02T03:31:52.878Z,1.40
2023-05-02T03:34:22.156Z,1.57
2023-05-02T03:36:50.501Z,1.50
2023-05-02T03:39:18.758Z,1.80
2023-05-02T03:41:48.336Z,1.70
2023-05-02T03:44:16.572Z,1.80
2023-05-02T03:46:44.775Z,1.87
2023-05-02T03:49:13.743Z,1.90
2023-05-02T03:51:41.940Z,1.70
2023-05-02T03:54:10.408Z,1.70
2023-05-02T03:56:40.719Z,1.50
2023-05-02T03:59:12.192Z,1.80
2023-05-02T04:01:40.403Z,1.63
2023-05-02T04:04:08.780Z,1.80
2023-05-02T04:06:38.288Z,1.47
2023-05-02T04:09:06.549Z,1.57
2023-05-02T04:11:34.703Z,1.77
2023-05-02T04:14:02.897Z,1.33
2023-05-02T04:16:32.455Z,1.87
2023-05-02T04:19:00.950Z,1.57
2023-05-02T04:21:29.093Z,1.57
2023-05-02T04:23:57.273Z,2.00
2023-05-02T04:26:25.717Z,2.50
2023-05-02T04:28:53.836Z,2.10
2023-05-02T04:31:22.025Z,1.90
2023-05-02T04:33:51.565Z,1.90
2023-05-02T04:36:20.057Z,2.30
2023-05-02T04:38:48.225Z,2.20
2023-05-02T04:41:17.498Z,2.00
2023-05-02T04:43:45.992Z,1.90
2023-05-02T04:46:14.209Z,2.40
2023-05-02T04:48:42.415Z,2.30
2023-05-02T04:51:13.498Z,2.47
2023-05-02T04:53:43.071Z,2.10
2023-05-02T04:56:11.308Z,2.57
2023-05-02T04:58:39.503Z,2.33
2023-05-02T05:01:07.796Z,2.37
2023-05-02T05:03:36.032Z,2.47
2023-05-02T05:06:04.321Z,2.50
2023-05-02T05:08:33.819Z,3.03
2023-05-02T05:11:02.028Z,2.53
2023-05-02T05:13:30.145Z,3.27
2023-05-02T05:15:58.442Z,2.70
2023-05-02T05:18:26.954Z,2.90
2023-05-02T05:20:55.163Z,2.80
2023-05-02T05:23:23.420Z,3.10
2023-05-02T05:25:52.907Z,2.90
2023-05-02T05:28:21.077Z,2.70
2023-05-02T05:30:49.249Z,2.80
2023-05-02T05:33:17.559Z,2.60
2023-05-02T05:35:45.787Z,3.23
2023-05-02T05:38:14.001Z,3.13
2023-05-02T05:40:42.125Z,2.93
2023-05-02T05:43:11.640Z,2.90
2023-05-02T05:45:39.918Z,3.07
2023-05-02T05:48:08.415Z,2.20
2023-05-02T05:50:36.686Z,2.77
2023-05-02T05:53:04.835Z,2.63
2023-05-02T05:55:33.160Z,3.07
2023-05-02T05:58:02.001Z,2.47
2023-05-02T06:00:32.220Z,2.80
2023-05-02T06:03:00.484Z,2.10
2023-05-02T06:05:28.816Z,2.70
2023-05-02T06:07:56.987Z,2.73
2023-05-02T06:10:25.294Z,2.20
2023-05-02T06:12:53.668Z,2.23
2023-05-02T06:15:21.796Z,3.10
2023-05-02T06:17:52.301Z,2.10
2023-05-02T06:20:20.635Z,2.20
2023-05-02T06:22:48.754Z,2.80
2023-05-02T06:25:16.898Z,2.70
2023-05-02T06:27:45.038Z,1.93
2023-05-02T06:30:13.492Z,2.30
2023-05-02T06:32:44.031Z,2.63
2023-05-02T06:35:13.724Z,1.83
2023-05-02T06:37:41.936Z,2.20
2023-05-02T06:40:10.770Z,2.63
2023-05-02T06:42:38.966Z,2.13
2023-05-02T06:45:07.759Z,1.80
2023-05-02T06:47:35.948Z,2.20
2023-05-02T06:50:04.266Z,2.13
2023-05-02T06:52:33.808Z,2.80
2023-05-02T06:55:02.159Z,1.93
2023-05-02T06:57:30.346Z,2.00
2023-05-02T06:59:58.866Z,2.30
2023-05-02T07:02:27.308Z,1.97
2023-05-02T07:04:55.479Z,1.70
2023-05-02T07:07:23.666Z,2.00
2023-05-02T07:09:53.208Z,2.00
2023-05-02T07:12:21.447Z,2.43
2023-05-02T07:14:49.679Z,1.90
2023-05-02T07:17:17.912Z,2.00
2023-05-02T07:19:46.090Z,1.73
2023-05-02T07:22:14.249Z,2.30
2023-05-02T07:24:42.780Z,2.20
2023-05-02T07:27:12.713Z,2.00
2023-05-02T07:29:42.433Z,2.37
2023-05-02T07:32:10.717Z,2.20
2023-05-02T07:34:38.944Z,1.90
2023-05-02T07:37:07.152Z,1.93
2023-05-02T07:39:35.296Z,2.10
2023-05-02T07:42:03.986Z,1.90
2023-05-02T07:44:34.961Z,2.67
2023-05-02T07:47:03.149Z,2.40
2023-05-02T07:49:31.480Z,2.00
2023-05-02T07:51:59.752Z,2.40
2023-05-02T07:54:27.968Z,2.10
2023-05-02T07:56:58.226Z,1.77
2023-05-02T07:59:26.479Z,1.93
2023-05-02T08:01:56.012Z,1.30
2023-05-02T08:04:24.330Z,1.60
2023-05-02T08:06:52.818Z,1.50
2023-05-02T08:09:21.123Z,1.63
2023-05-02T08:11:49.375Z,1.70
2023-05-02T08:14:17.817Z,1.83
2023-05-02T08:16:46.761Z,1.50
2023-05-02T08:19:16.802Z,1.80
2023-05-02T08:21:45.032Z,1.53
2023-05-02T08:24:13.251Z,1.33
2023-05-02T08:26:41.479Z,1.63
2023-05-02T08:29:11.524Z,1.40
2023-05-02T08:31:39.809Z,1.73
2023-05-02T08:34:08.044Z,1.70
2023-05-02T08:36:37.993Z,1.53
2023-05-02T08:39:07.959Z,1.60
2023-05-02T08:41:36.192Z,1.50
2023-05-02T08:44:04.905Z,1.97
2023-05-02T08:46:33.763Z,1.70
2023-05-02T08:49:02.330Z,1.80
2023-05-02T08:51:32.565Z,1.60
2023-05-02T08:54:03.839Z,1.50
2023-05-02T08:56:32.012Z,1.40
2023-05-02T08:59:00.111Z,1.53
2023-05-02T09:01:32.074Z,1.70
2023-05-02T09:04:00.323Z,1.80
2023-05-02T09:06:29.213Z,1.40
2023-05-02T09:09:02.978Z,1.67
2023-05-02T09:11:32.527Z,1.20
2023-05-02T09:14:03.953Z,1.67
2023-05-02T09:16:40.083Z,1.70
2023-05-02T09:19:08.359Z,2.00
2023-05-02T09:21:40.325Z,1.20
2023-05-02T09:24:16.905Z,1.30
2023-05-02T09:26:57.856Z,1.80
2023-05-02T09:29:26.330Z,2.00
2023-05-02T09:31:56.680Z,1.77
2023-05-02T09:34:25.244Z,1.53
2023-05-02T09:36:54.936Z,1.60
2023-05-02T09:39:25.814Z,1.47
2023-05-02T09:41:55.846Z,1.93
2023-05-02T09:44:24.734Z,2.00
2023-05-02T09:46:54.877Z,1.40
2023-05-02T09:49:40.650Z,1.53
2023-05-02T09:52:12.497Z,1.40
2023-05-02T09:54:40.765Z,1.47
2023-05-02T09:57:11.055Z,1.70
2023-05-02T09:59:41.019Z,1.80
2023-05-02T10:02:11.311Z,1.83
2023-05-02T10:04:40.803Z,1.83
2023-05-02T10:07:10.377Z,1.60
2023-05-02T10:09:40.808Z,1.70
2023-05-02T10:12:11.010Z,1.90
2023-05-02T10:14:42.201Z,1.87
2023-05-02T10:17:14.074Z,1.70
2023-05-02T10:19:47.052Z,1.60
2023-05-02T10:22:15.437Z,1.37
2023-05-02T10:24:44.223Z,1.57
2023-05-02T10:27:13.788Z,1.80
2023-05-02T10:29:42.352Z,2.00
2023-05-02T10:32:10.931Z,1.70
2023-05-02T10:34:40.766Z,1.73
2023-05-02T10:37:08.860Z,1.60
2023-05-02T10:39:37.865Z,1.70
2023-05-02T10:42:06.994Z,1.57
2023-05-02T10:44:37.218Z,1.93
2023-05-02T10:47:20.626Z,2.10
2023-05-02T10:49:53.142Z,1.93
2023-05-02T10:52:27.582Z,1.73
2023-05-02T10:55:15.019Z,1.50
2023-05-02T10:57:58.190Z,1.87
2023-05-02T11:00:29.396Z,1.97
2023-05-02T11:02:57.966Z,1.60
2023-05-02T11:05:27.098Z,2.00
2023-05-02T11:08:10.144Z,1.60
2023-05-02T11:10:38.343Z,1.77
2023-05-02T11:13:06.545Z,2.10
2023-05-02T11:15:53.496Z,2.30
2023-05-02T11:18:23.234Z,1.60
2023-05-02T11:20:51.408Z,1.63
2023-05-02T11:23:25.797Z,1.40
2023-05-02T11:25:54.994Z,2.17
2023-05-02T11:28:42.732Z,2.43
2023-05-02T11:31:11.743Z,1.90
2023-05-02T11:33:41.254Z,1.50
2023-05-02T11:36:09.519Z,1.80
2023-05-02T11:38:38.943Z,1.53
2023-05-02T11:41:07.344Z,1.57
2023-05-02T11:43:35.780Z,1.70
2023-05-02T11:46:05.258Z,1.53
2023-05-02T11:48:33.736Z,1.70
2023-05-02T11:51:05.045Z,1.50
2023-05-02T11:53:33.895Z,1.70
2023-05-02T11:56:03.047Z,1.60
2023-05-02T11:58:33.276Z,1.57
2023-05-02T12:01:01.816Z,1.47
2023-05-02T12:03:30.940Z,1.80
2023-05-02T12:05:59.906Z,1.87
2023-05-02T12:08:30.022Z,1.60
2023-05-02T12:10:58.452Z,1.80
2023-05-02T12:13:27.570Z,1.50
2023-05-02T12:15:56.427Z,1.40
2023-05-02T12:18:25.147Z,1.60
2023-05-02T12:20:53.813Z,1.40
2023-05-02T12:23:22.487Z,1.67
2023-05-02T12:25:52.031Z,1.60
2023-05-02T12:28:20.777Z,1.40
2023-05-02T12:30:49.633Z,1.60
2023-05-02T12:33:18.024Z,1.70
2023-05-02T12:35:47.464Z,1.63
2023-05-02T12:38:16.864Z,1.93
2023-05-02T12:40:53.430Z,1.50
2023-05-02T12:43:22.095Z,1.40
2023-05-02T12:45:53.610Z,1.47
2023-05-02T12:48:23.545Z,1.47
2023-05-02T12:50:52.002Z,1.50
2023-05-02T12:53:20.159Z,1.63
2023-05-02T12:55:48.472Z,1.73
2023-05-02T12:58:17.985Z,1.60
2023-05-02T13:00:47.807Z,1.70
2023-05-02T13:03:16.410Z,1.40
2023-05-02T13:05:44.649Z,1.33
2023-05-02T13:08:13.143Z,1.80
2023-05-02T13:10:41.297Z,1.40
2023-05-02T13:13:09.446Z,1.30
2023-05-02T13:15:38.984Z,1.30
2023-05-02T13:18:07.258Z,1.60
2023-05-02T13:20:35.468Z,1.47
2023-05-02T13:23:03.670Z,1.63
2023-05-02T13:25:31.775Z,1.55
2023-05-02T13:27:59.948Z,1.60
2023-05-02T13:30:28.247Z,1.80
2023-05-02T13:32:58.517Z,1.60
2023-05-02T13:35:26.833Z,1.63
2023-05-02T13:37:54.985Z,1.83
2023-05-02T13:40:23.179Z,1.80
2023-05-02T13:42:51.317Z,1.33
2023-05-02T13:45:19.568Z,1.60
2023-05-02T13:47:47.849Z,1.50
2023-05-02T13:50:17.500Z,1.90
2023-05-02T13:52:48.383Z,1.73
2023-05-02T13:55:17.377Z,1.65
2023-05-02T13:57:45.553Z,1.67
2023-05-02T14:00:14.186Z,1.77
2023-05-02T14:02:42.517Z,2.00
2023-05-02T14:05:10.905Z,1.80
2023-05-02T14:07:40.534Z,1.77
2023-05-02T14:10:09.182Z,2.03
2023-05-02T14:12:37.391Z,1.90
2023-05-02T14:15:05.924Z,1.93
2023-05-02T14:17:34.210Z,1.70
2023-05-02T14:20:02.686Z,1.88
2023-05-02T14:22:31.115Z,1.58
2023-05-02T14:25:00.607Z,1.90
2023-05-02T14:27:28.761Z,2.00
2023-05-02T14:29:56.965Z,1.80
2023-05-02T14:32:25.373Z,1.77
2023-05-02T14:34:53.563Z,1.60
2023-05-02T14:37:21.829Z,1.98
2023-05-02T14:39:54.773Z,2.00
2023-05-02T14:42:24.787Z,1.80
2023-05-02T14:44:53.452Z,1.70
2023-05-02T14:47:22.564Z,1.67
2023-05-02T14:49:50.817Z,2.10
2023-05-02T14:52:18.959Z,1.60
2023-05-02T14:54:47.112Z,2.05
2023-05-02T14:57:15.537Z,1.52
2023-05-02T14:59:45.141Z,1.90
2023-05-02T15:02:13.361Z,2.23
2023-05-02T15:04:41.777Z,1.80
2023-05-02T15:07:10.278Z,2.00
2023-05-02T15:09:38.836Z,1.93
2023-05-02T15:12:07.202Z,2.75
2023-05-02T15:14:35.348Z,1.70
2023-05-02T15:17:04.949Z,1.90
2023-05-02T15:19:33.148Z,1.83
2023-05-02T15:22:01.656Z,1.90
2023-05-02T15:24:29.787Z,1.80
2023-05-02T15:26:57.948Z,2.20
2023-05-02T15:29:26.119Z,2.17
2023-05-02T15:31:55.054Z,2.42
2023-05-02T15:34:24.661Z,2.17
2023-05-02T15:36:52.867Z,2.00
2023-05-02T15:39:22.608Z,1.77
2023-05-02T15:41:50.836Z,1.90
2023-05-02T15:44:19.270Z,1.90
2023-05-02T15:46:47.630Z,1.80
2023-05-02T15:49:15.989Z,2.00
2023-05-02T15:51:45.512Z,2.00
2023-05-02T15:54:13.726Z,2.20
2023-05-02T15:56:42.010Z,2.40
2023-05-02T15:59:10.261Z,2.20
2023-05-02T16:01:39.550Z,1.87
2023-05-02T16:04:09.592Z,2.73
2023-05-02T16:06:38.019Z,2.20
2023-05-02T16:09:07.732Z,2.17
2023-05-02T16:11:36.012Z,2.20
2023-05-02T16:14:04.274Z,1.90
2023-05-02T16:16:32.626Z,1.90
2023-05-02T16:19:00.961Z,2.00
2023-05-02T16:21:29.145Z,1.80
2023-05-02T16:23:57.386Z,2.20
2023-05-02T16:26:28.317Z,1.83
2023-05-02T16:28:58.428Z,1.80
2023-05-02T16:31:26.815Z,2.10
2023-05-02T16:33:55.030Z,1.77
2023-05-02T16:36:23.160Z,2.03
2023-05-02T16:38:51.455Z,1.90
2023-05-02T16:41:19.650Z,2.00
2023-05-02T16:43:49.237Z,1.90
2023-05-02T16:46:17.864Z,1.97
2023-05-02T16:48:46.107Z,2.00
2023-05-02T16:51:14.299Z,1.70
2023-05-02T16:53:43.446Z,1.70
2023-05-02T16:56:11.620Z,1.70
2023-05-02T16:58:39.791Z,1.90
2023-05-02T17:01:09.394Z,1.53
2023-05-02T17:03:37.780Z,1.70
2023-05-02T17:06:06.144Z,1.60
2023-05-02T17:08:34.371Z,1.73
2023-05-02T17:11:02.707Z,1.30
2023-05-02T17:13:31.500Z,1.40
2023-05-02T17:15:59.968Z,2.37
2023-05-02T17:18:29.673Z,1.57
2023-05-02T17:20:57.923Z,1.70
2023-05-02T17:23:26.152Z,1.57
2023-05-02T17:25:54.338Z,1.40
2023-05-02T17:28:22.582Z,1.57
2023-05-02T17:30:54.558Z,1.43
2023-05-02T17:33:22.893Z,1.57
2023-05-02T17:35:52.734Z,1.60
2023-05-02T17:38:20.854Z,1.57
2023-05-02T17:40:49.140Z,1.30
2023-05-02T17:43:17.520Z,1.40
2023-05-02T17:45:45.823Z,1.50
2023-05-02T17:48:14.144Z,1.27
2023-05-02T17:50:42.637Z,1.33
2023-05-02T17:53:12.570Z,1.50
2023-05-02T17:55:41.090Z,1.20
2023-05-02T17:58:09.387Z,1.20
2023-05-02T18:00:38.005Z,1.50
2023-05-02T18:03:08.100Z,1.07
2023-05-02T18:05:39.593Z,1.13
2023-05-02T18:08:08.227Z,1.40
2023-05-02T18:10:41.568Z,1.37
2023-05-02T18:13:09.832Z,1.40
2023-05-02T18:15:38.027Z,1.30
2023-05-02T18:18:06.310Z,1.30
2023-05-02T18:20:39.311Z,1.30
2023-05-02T18:23:07.819Z,1.20
2023-05-02T18:25:35.994Z,1.17
2023-05-02T18:28:05.530Z,1.63
2023-05-02T18:30:37.352Z,1.70
2023-05-02T18:33:06.350Z,1.30
2023-05-02T18:35:34.658Z,1.43
2023-05-02T18:38:02.977Z,1.30
2023-05-02T18:40:31.286Z,1.50
2023-05-02T18:42:59.497Z,1.20
2023-05-02T18:45:29.028Z,1.77
2023-05-02T18:47:57.232Z,1.17
2023-05-02T18:50:26.118Z,1.40
2023-05-02T18:52:54.429Z,1.60
2023-05-02T18:55:25.268Z,1.47
2023-05-02T18:57:53.739Z,1.50
2023-05-02T19:00:23.343Z,1.20
2023-05-02T19:02:54.458Z,1.10
2023-05-02T19:05:22.802Z,1.23
2023-05-02T19:07:51.078Z,1.50
2023-05-02T19:10:19.274Z,1.30
2023-05-02T19:12:47.775Z,1.67
2023-05-02T19:15:16.142Z,1.20
2023-05-02T19:17:44.507Z,1.40
2023-05-02T19:20:14.267Z,1.43
2023-05-02T19:22:42.939Z,1.20
2023-05-02T19:25:12.812Z,1.30
2023-05-02T19:27:42.095Z,1.03
2023-05-02T19:30:13.209Z,1.20
2023-05-02T19:32:41.422Z,1.07
2023-05-02T19:35:09.977Z,0.87
2023-05-02T19:37:39.582Z,1.70
2023-05-02T19:40:08.587Z,1.30
2023-05-02T19:42:37.374Z,1.17
2023-05-02T19:45:05.768Z,1.40
2023-05-02T19:47:34.000Z,1.03
2023-05-02T19:50:02.210Z,1.30
2023-05-02T19:52:30.513Z,1.20
2023-05-02T19:55:01.735Z,1.33
2023-05-02T19:57:30.110Z,1.37
2023-05-02T19:59:58.249Z,1.17
2023-05-02T20:02:26.972Z,2.00
2023-05-02T20:04:55.207Z,1.77
2023-05-02T20:07:23.353Z,1.40
2023-05-02T20:09:51.487Z,1.50
2023-05-02T20:12:20.958Z,1.67
2023-05-02T20:14:49.134Z,1.20
2023-05-02T20:17:17.347Z,1.20
2023-05-02T20:19:45.822Z,1.30
2023-05-02T20:22:14.025Z,1.57
2023-05-02T20:24:42.208Z,1.67
2023-05-02T20:27:10.568Z,1.40
2023-05-02T20:29:40.120Z,1.50
2023-05-02T20:32:08.352Z,1.40
2023-05-02T20:34:36.656Z,1.50
2023-05-02T20:37:06.811Z,1.20
2023-05-02T20:39:35.398Z,1.53
2023-05-02T20:42:04.760Z,1.30
2023-05-02T20:44:33.668Z,1.57
2023-05-02T20:47:03.531Z,1.43
2023-05-02T20:49:32.669Z,1.40
2023-05-02T20:52:04.897Z,1.17
2023-05-02T20:54:33.118Z,1.47
2023-05-02T20:57:03.343Z,1.57
2023-05-02T20:59:31.873Z,1.37
2023-05-02T21:02:00.216Z,1.70
2023-05-02T21:04:29.848Z,1.90
2023-05-02T21:06:58.016Z,1.67
2023-05-02T21:09:26.255Z,1.30
2023-05-02T21:11:54.417Z,1.87
2023-05-02T21:14:24.834Z,1.60
2023-05-02T21:16:53.451Z,1.80
2023-05-02T21:19:21.771Z,1.53
2023-05-02T21:21:51.378Z,1.57
2023-05-02T21:24:19.495Z,1.57
2023-05-02T21:26:47.679Z,1.67
2023-05-02T21:29:15.985Z,1.60
2023-05-02T21:31:44.421Z,1.70
2023-05-02T21:34:12.683Z,1.50
2023-05-02T21:36:42.094Z,2.13
2023-05-02T21:39:11.664Z,2.50
2023-05-02T21:41:39.856Z,1.90
2023-05-02T21:44:08.005Z,1.80
2023-05-02T21:46:36.213Z,1.83
2023-05-02T21:49:04.371Z,1.70
2023-05-02T21:51:34.271Z,1.90
2023-05-02T21:54:02.710Z,1.60
2023-05-02T21:56:32.254Z,2.00
2023-05-02T21:59:00.629Z,1.90
2023-05-02T22:01:28.930Z,2.13
2023-05-02T22:03:57.978Z,1.80
2023-05-02T22:06:26.319Z,1.90
2023-05-02T22:08:54.542Z,2.07
2023-05-02T22:11:24.181Z,2.10
2023-05-02T22:13:53.763Z,2.50
2023-05-02T22:16:21.960Z,2.00
2023-05-02T22:18:50.498Z,2.40
2023-05-02T22:21:19.313Z,2.10
2023-05-02T22:23:47.434Z,1.87
2023-05-02T22:26:15.761Z,2.23
2023-05-02T22:28:43.936Z,2.33
2023-05-02T22:31:14.143Z,1.93
2023-05-02T22:33:42.254Z,2.20
2023-05-02T22:36:10.574Z,1.90
2023-05-02T22:38:40.012Z,1.83
2023-05-02T22:41:08.127Z,2.13
2023-05-02T22:43:36.648Z,2.30
2023-05-02T22:46:05.969Z,2.03
2023-05-02T22:48:35.566Z,2.20
2023-05-02T22:51:03.920Z,2.17
2023-05-02T22:53:32.431Z,2.23
2023-05-02T22:56:00.650Z,1.90
2023-05-02T22:58:28.793Z,2.33
2023-05-02T23:00:56.941Z,2.20
2023-05-02T23:03:25.162Z,2.37
2023-05-02T23:05:54.677Z,2.07
2023-05-02T23:08:22.857Z,2.03
2023-05-02T23:10:51.018Z,2.10
2023-05-02T23:13:19.156Z,2.33
2023-05-02T23:15:47.966Z,2.20
2023-05-02T23:18:16.112Z,2.47
2023-05-02T23:20:44.296Z,2.07
2023-05-02T23:23:13.805Z,2.27
2023-05-02T23:25:42.005Z,1.90
2023-05-02T23:28:10.408Z,2.50
2023-05-02T23:30:39.617Z,2.50
2023-05-02T23:33:07.985Z,2.23
2023-05-02T23:35:37.074Z,2.27
2023-05-02T23:38:07.682Z,2.37
2023-05-02T23:40:37.272Z,2.67
2023-05-02T23:43:07.469Z,2.10
2023-05-02T23:45:35.667Z,2.20
2023-05-02T23:48:03.870Z,2.43
2023-05-02T23:50:32.698Z,2.30
2023-05-02T23:53:01.173Z,2.20
2023-05-02T23:55:29.395Z,2.20
2023-05-02T23:57:58.954Z,2.37
